Old Westbury, New York
Current Conditions -  °F | °C
As of 12:53 AM on Friday 28 Nov 2014 (Local Time) from KFRG Reporting Station
Scattered Clouds Scattered Clouds  
Wind Chill: 30°   Ceiling: Unl
Heat Index: 35°   Visibility: 10mi
Dew Point: 27°   Wind: 6mph
Humidity: 72%   Direction: 340°NNW
Pressure: 30.04"   Gusts: NA
Location:  40.79°N, 73.6°W
Report Text: KFRG 280553Z AUTO 34005KT 10SM SCT075 02/M03 A3004 RMK AO2 SLP173 T00171028 10033 20017 50001
Loading
Personal Weather Stations






























Interactive Weather Map New forecast layout! Learn more

10-Day Weather Forecast

Advertisements
Track Severe Weather on mobile